Time;durP1;ratioP1;P1;durP2;ratioP2;P2;SDS_P1;SDS_P2;PMS_P1;PMS_P2;Temp;Humidity;BMP_temperature;BMP_pressure;BME280_temperature;BME280_humidity;BME280_pressure;Samples;Min_cycle;Max_cycle;Signal;HPM_P1;HPM_P2
2022/04/20 00:00:11;;;;;;;7.75;4.72;;;;;;;10.19;57.03;101013.69;5080182;28;20067;-60
2022/04/20 00:02:42;;;;;;;7.32;4.07;;;;;;;10.12;57.15;100998.16;5078740;28;20044;-60
2022/04/20 00:05:09;;;;;;;10.60;4.70;;;;;;;10.05;57.36;101006.81;5080340;28;20044;-60
2022/04/20 00:07:37;;;;;;;9.98;4.53;;;;;;;10.00;57.44;100998.19;5080143;28;20052;-60
2022/04/20 00:10:08;;;;;;;8.77;4.00;;;;;;;9.97;57.62;101005.97;5080074;28;20161;-60
2022/04/20 00:12:34;;;;;;;7.05;4.07;;;;;;;9.97;57.94;101007.69;5078565;28;20058;-60
2022/04/20 00:15:02;;;;;;;9.27;4.28;;;;;;;9.95;57.56;101009.44;5081323;28;20048;-60
2022/04/20 00:17:36;;;;;;;9.52;4.30;;;;;;;9.96;57.78;101011.16;5079732;28;20055;-60
2022/04/20 00:20:06;;;;;;;9.82;4.63;;;;;;;9.96;57.47;101009.44;5086317;28;20046;-60
2022/04/20 00:22:36;;;;;;;9.45;4.20;;;;;;;9.97;57.11;101018.06;5083414;28;20048;-60
2022/04/20 00:25:04;;;;;;;6.07;3.80;;;;;;;9.95;57.89;101017.19;5084710;28;20136;-60
2022/04/20 00:27:34;;;;;;;6.53;3.55;;;;;;;9.97;58.14;101026.69;5085391;28;20056;-60
2022/04/20 00:30:01;;;;;;;8.65;4.57;;;;;;;9.98;57.96;101025.81;5084149;28;20044;-60
2022/04/20 00:32:31;;;;;;;9.52;4.63;;;;;;;9.98;58.34;101028.41;5083308;28;20048;-60
2022/04/20 00:34:58;;;;;;;9.68;4.30;;;;;;;9.99;58.76;101031.88;5084047;28;20048;-60
2022/04/20 00:37:26;;;;;;;7.88;4.43;;;;;;;10.00;58.64;101034.47;5081841;28;20059;-60
2022/04/20 00:39:56;;;;;;;8.35;4.05;;;;;;;9.96;58.99;101045.69;5079698;28;20049;-60
2022/04/20 00:42:27;;;;;;;9.85;4.05;;;;;;;9.96;59.44;101037.91;5079390;28;20056;-60
2022/04/20 00:44:55;;;;;;;7.35;3.45;;;;;;;9.94;59.46;101025.84;5084710;28;20052;-60
2022/04/20 00:47:24;;;;;;;6.95;3.55;;;;;;;9.93;59.41;101011.16;5079668;28;20106;-60
2022/04/20 00:50:02;;;;;;;9.15;4.10;;;;;;;9.95;59.43;100997.34;5081652;28;20044;-60
2022/04/20 00:52:30;;;;;;;8.75;3.60;;;;;;;9.91;60.34;100992.19;5074419;28;20088;-60
2022/04/20 00:54:58;;;;;;;7.10;3.72;;;;;;;9.86;59.94;100989.56;5074227;28;20059;-60
2022/04/20 00:57:26;;;;;;;8.80;3.63;;;;;;;9.73;60.16;100982.69;5074177;28;20147;-60
2022/04/20 00:59:57;;;;;;;9.23;3.72;;;;;;;9.70;60.61;100977.50;5085888;28;20055;-60
2022/04/20 01:02:27;;;;;;;7.55;4.30;;;;;;;9.60;61.02;100975.78;5086967;28;20077;-60
2022/04/20 01:04:57;;;;;;;6.70;3.28;;;;;;;9.56;61.64;100974.94;5060325;28;20055;-60
2022/04/20 01:07:25;;;;;;;10.05;3.42;;;;;;;9.56;61.61;100984.41;5090418;28;20052;-60
2022/04/20 01:09:52;;;;;;;6.70;3.38;;;;;;;9.57;61.38;100968.88;5074139;28;20060;-60
2022/04/20 01:12:21;;;;;;;6.60;3.17;;;;;;;9.58;61.23;100967.16;5085939;28;20381;-60
2022/04/20 01:14:48;;;;;;;6.93;3.55;;;;;;;9.56;61.71;100958.53;5074497;28;20045;-60
2022/04/20 01:17:16;;;;;;;6.60;2.80;;;;;;;9.54;62.38;100955.09;5073911;28;20056;-60
2022/04/20 01:19:44;;;;;;;6.68;3.15;;;;;;;9.53;62.12;100950.78;5073114;28;20385;-60
2022/04/20 01:22:13;;;;;;;6.50;2.80;;;;;;;9.54;61.84;100947.34;5078756;28;20052;-60
2022/04/20 01:24:41;;;;;;;8.27;3.10;;;;;;;9.52;62.60;100954.22;5081727;28;20059;-60
2022/04/20 01:27:09;;;;;;;6.72;2.85;;;;;;;9.44;62.18;100949.94;5072912;28;20109;-60
2022/04/20 01:29:38;;;;;;;6.28;2.88;;;;;;;9.44;62.37;100960.28;5073480;28;20044;-59
2022/04/20 01:32:07;;;;;;;4.55;2.63;;;;;;;9.46;62.25;100973.22;5081956;28;20040;-60
2022/04/20 01:34:35;;;;;;;5.30;3.08;;;;;;;9.53;62.30;100967.16;5075545;28;20066;-60
2022/04/20 01:37:06;;;;;;;5.57;2.67;;;;;;;9.55;62.29;100957.69;5077682;28;20052;-59
2022/04/20 01:39:36;;;;;;;5.88;2.60;;;;;;;9.61;62.40;100962.00;5085725;28;20036;-60
2022/04/20 01:42:04;;;;;;;5.72;3.05;;;;;;;9.64;62.32;100951.63;5086652;28;20056;-60
2022/04/20 01:44:32;;;;;;;7.75;3.00;;;;;;;9.66;62.79;100949.91;5090846;28;20054;-60
2022/04/20 01:46:59;;;;;;;7.68;2.60;;;;;;;9.66;62.48;100949.91;5096022;28;20048;-60
2022/04/20 01:49:27;;;;;;;6.05;2.83;;;;;;;9.66;62.73;100944.72;5082363;28;20373;-60
2022/04/20 01:51:55;;;;;;;6.28;3.20;;;;;;;9.64;62.60;100936.09;5089713;28;20048;-60
2022/04/20 01:54:22;;;;;;;7.47;3.42;;;;;;;9.61;62.65;100925.75;5086559;28;20464;-60
2022/04/20 01:56:53;;;;;;;8.70;3.05;;;;;;;9.54;63.13;100924.91;5072709;28;20060;-60
2022/04/20 01:59:20;;;;;;;6.78;2.90;;;;;;;9.53;63.36;100906.78;5079878;28;20059;-60
2022/04/20 02:04:52;;;;;;;5.53;2.40;;;;;;;9.52;63.56;100902.47;5019855;28;20207;-60
2022/04/20 02:07:20;;;;;;;7.32;2.88;;;;;;;9.56;63.37;100896.44;5021097;28;20061;-60
2022/04/20 02:09:49;;;;;;;10.10;3.65;;;;;;;9.57;63.15;100900.75;5020518;28;20054;-60
2022/04/20 02:12:21;;;;;;;7.50;3.00;;;;;;;9.57;63.53;100899.00;5022428;28;20601;-60
2022/04/20 02:14:49;;;;;;;10.73;3.72;;;;;;;9.57;63.01;100892.97;5016807;28;20062;-59
2022/04/20 02:17:17;;;;;;;7.60;4.40;;;;;;;9.56;62.66;100891.25;5048021;28;20056;-60
2022/04/20 02:19:47;;;;;;;6.00;2.30;;;;;;;9.59;62.97;100896.44;5058521;28;20476;-60
2022/04/20 02:22:17;;;;;;;5.35;2.60;;;;;;;9.61;63.20;100894.69;5072686;28;20052;-60
2022/04/20 02:24:44;;;;;;;6.20;2.67;;;;;;;9.66;62.98;100892.97;5072311;28;20597;-60
2022/04/20 02:27:13;;;;;;;7.75;2.33;;;;;;;9.70;62.49;100887.78;5072438;28;20515;-60
2022/04/20 02:29:42;;;;;;;5.72;2.45;;;;;;;9.73;62.86;100890.34;5072751;28;20055;-60
2022/04/20 02:32:09;;;;;;;4.57;2.80;;;;;;;9.74;62.53;100896.38;5072745;28;20067;-60
2022/04/20 02:34:37;;;;;;;4.95;2.58;;;;;;;9.76;62.62;100879.13;5060030;28;20148;-60
2022/04/20 02:37:05;;;;;;;4.40;2.17;;;;;;;9.76;62.76;100884.31;5052472;28;20381;-60
2022/04/20 02:39:35;;;;;;;6.30;2.50;;;;;;;9.79;62.34;100881.69;5052836;28;20163;-60
2022/04/20 02:42:05;;;;;;;8.23;2.53;;;;;;;9.86;62.47;100875.63;5052797;28;20049;-60
2022/04/20 02:44:32;;;;;;;7.55;2.72;;;;;;;9.90;61.99;100866.16;5061776;28;20063;-60
2022/04/20 02:47:08;;;;;;;6.18;2.50;;;;;;;9.96;61.93;100851.47;5092635;28;20062;-60
2022/04/20 02:49:36;;;;;;;;;;;;;;;9.88;62.39;100853.19;5052983;28;20363;-60
2022/04/20 02:52:04;;;;;;;6.47;2.35;;;;;;;9.87;62.40;100859.22;5063864;28;20296;-60
2022/04/20 02:54:34;;;;;;;5.70;2.45;;;;;;;9.89;62.40;100860.13;5070476;28;20060;-60
2022/04/20 02:57:02;;;;;;;7.72;2.17;;;;;;;9.91;62.59;100853.22;5072406;28;20048;-60
2022/04/20 02:59:29;;;;;;;4.18;2.45;;;;;;;9.91;62.72;100853.22;5070512;28;20041;-60
2022/04/20 03:01:57;;;;;;;5.40;2.58;;;;;;;9.90;62.38;100856.66;5054947;28;20075;-60
2022/04/20 03:04:26;;;;;;;7.13;2.60;;;;;;;9.91;62.24;100860.13;5067107;28;20057;-60
2022/04/20 03:06:54;;;;;;;6.30;2.75;;;;;;;9.90;62.47;100856.66;5072073;28;20052;-60
2022/04/20 03:09:22;;;;;;;6.30;2.50;;;;;;;9.89;62.65;100857.53;5075984;28;20060;-60
2022/04/20 03:11:49;;;;;;;6.03;2.65;;;;;;;9.89;62.71;100867.88;5090651;28;20067;-60
2022/04/20 03:14:18;;;;;;;5.05;2.58;;;;;;;9.89;62.15;100860.13;5086270;28;20436;-60
2022/04/20 03:16:46;;;;;;;6.55;2.55;;;;;;;9.89;61.95;100860.13;5088719;28;20106;-60
2022/04/20 03:19:14;;;;;;;4.78;2.55;;;;;;;9.87;62.38;100859.22;5096033;28;20047;-60
2022/04/20 03:21:43;;;;;;;4.10;2.40;;;;;;;9.82;62.68;100863.56;5096318;28;20511;-60
2022/04/20 03:24:11;;;;;;;6.72;2.58;;;;;;;9.75;62.74;100875.69;5096289;28;20067;-60
2022/04/20 03:26:39;;;;;;;4.47;2.60;;;;;;;9.76;63.06;100881.72;5096367;28;20063;-60
2022/04/20 03:29:05;;;;;;;4.88;2.30;;;;;;;9.79;62.65;100879.97;5096129;28;20048;-60
2022/04/20 03:31:38;;;;;;;4.47;2.50;;;;;;;9.84;62.82;100884.28;5095726;28;20047;-60
2022/04/20 03:34:05;;;;;;;7.57;2.85;;;;;;;9.85;62.55;100888.59;5075461;28;20045;-60
2022/04/20 03:36:35;;;;;;;5.30;2.58;;;;;;;9.88;62.90;100894.63;5075499;28;20134;-60
2022/04/20 03:39:05;;;;;;;6.15;2.40;;;;;;;9.88;62.61;100899.78;5075319;28;20131;-60
2022/04/20 03:41:33;;;;;;;5.60;2.50;;;;;;;9.84;62.30;100907.56;5074859;28;20358;-60
2022/04/20 03:44:03;;;;;;;4.75;2.75;;;;;;;9.81;62.82;100903.28;5080416;28;20070;-60
2022/04/20 03:46:31;;;;;;;6.07;3.05;;;;;;;9.81;62.48;100898.09;5116059;28;20117;-60
2022/04/20 03:49:01;;;;;;;6.75;2.70;;;;;;;9.80;63.13;100904.13;5097820;28;20056;-60
2022/04/20 03:51:32;;;;;;;4.78;2.70;;;;;;;9.82;62.73;100912.75;5095850;28;20083;-60
2022/04/20 03:54:00;;;;;;;9.55;2.70;;;;;;;9.79;63.17;100912.78;5096005;28;20074;-60
2022/04/20 03:57:03;;;;;;;5.88;2.72;;;;;;;9.82;62.73;100916.22;5095371;28;20733;-60
2022/04/20 03:59:18;;;;;;;6.78;2.80;;;;;;;9.83;63.02;100919.66;5079952;28;20481;-60
2022/04/20 04:01:46;;;;;;;7.65;2.63;;;;;;;9.79;62.98;100921.41;5075426;28;20056;-60
2022/04/20 04:04:13;;;;;;;6.40;2.88;;;;;;;9.78;62.69;100917.09;5088860;28;20052;-60
2022/04/20 04:06:41;;;;;;;7.53;2.92;;;;;;;9.70;63.11;100916.25;5095155;28;20071;-58
2022/04/20 04:09:09;;;;;;;8.43;3.00;;;;;;;9.68;63.49;100906.75;5095696;28;20136;-59
2022/04/20 04:11:42;;;;;;;7.38;3.33;;;;;;;9.69;63.59;100908.47;5094766;28;20551;-59
2022/04/20 04:14:10;;;;;;;9.57;3.10;;;;;;;9.67;63.56;100910.22;5086618;28;20059;-60
2022/04/20 04:16:38;;;;;;;6.57;3.03;;;;;;;9.64;63.72;100910.22;5089612;28;20048;-60
2022/04/20 04:19:06;;;;;;;9.15;3.13;;;;;;;9.64;63.79;100899.88;5094230;28;20048;-60
2022/04/20 04:21:35;;;;;;;8.70;3.47;;;;;;;9.62;63.69;100893.81;5078039;28;20052;-59
2022/04/20 04:24:03;;;;;;;8.52;2.97;;;;;;;9.63;63.85;100892.97;5074786;28;20056;-60
2022/04/20 04:26:30;;;;;;;6.05;2.75;;;;;;;9.65;63.95;100891.22;5082527;28;20052;-60
2022/04/20 04:28:59;;;;;;;7.68;3.05;;;;;;;9.64;64.30;100889.50;5095267;28;20044;-60
2022/04/20 04:31:28;;;;;;;5.68;2.85;;;;;;;9.61;64.00;100874.00;5095005;28;20052;-60
2022/04/20 04:33:56;;;;;;;7.13;2.75;;;;;;;9.60;64.27;100865.38;5095056;28;20124;-60
2022/04/20 04:36:24;;;;;;;8.02;3.28;;;;;;;9.61;64.57;100858.47;5095055;28;20056;-60
2022/04/20 04:38:52;;;;;;;5.28;2.95;;;;;;;9.62;64.51;100866.22;5094956;28;20052;-60
2022/04/20 04:41:20;;;;;;;7.43;3.45;;;;;;;9.65;64.50;100871.38;5080756;28;20059;-60
2022/04/20 04:43:48;;;;;;;8.18;3.78;;;;;;;9.63;64.47;100861.91;5081482;28;20064;-60
2022/04/20 04:49:02;;;;;;;9.23;3.10;;;;;;;9.60;64.51;100859.31;5079016;28;20133;-60
2022/04/20 04:51:30;;;;;;;7.25;3.25;;;;;;;9.60;64.73;100861.91;5074486;28;20049;-60
2022/04/20 04:53:57;;;;;;;7.30;3.35;;;;;;;9.64;64.13;100863.63;5074433;28;20045;-60
2022/04/20 04:56:25;;;;;;;8.23;3.28;;;;;;;9.68;64.47;100860.16;5074211;28;20060;-60
2022/04/20 04:58:56;;;;;;;6.22;3.28;;;;;;;9.70;64.85;100868.78;5076663;28;20059;-60
2022/04/20 05:01:36;;;;;;;9.13;2.30;;;;;;;9.74;63.78;100880.84;5074305;28;20110;-60
2022/04/20 05:04:03;;;;;;;6.80;3.05;;;;;;;9.78;64.36;100880.84;5086431;28;20052;-60
2022/04/20 05:06:31;;;;;;;11.82;2.67;;;;;;;9.81;63.77;100879.97;5083537;28;20067;-60
2022/04/20 05:08:59;;;;;;;6.70;2.83;;;;;;;9.87;63.98;100876.50;5084280;28;20063;-60
2022/04/20 05:11:26;;;;;;;6.05;2.55;;;;;;;9.91;63.36;100873.94;5093827;28;20070;-60
2022/04/20 05:13:55;;;;;;;7.95;2.20;;;;;;;9.96;63.54;100871.31;5087748;28;20048;-60
2022/04/20 05:16:23;;;;;;;7.68;2.22;;;;;;;10.02;63.07;100866.97;5073770;28;20044;-60
2022/04/20 05:18:52;;;;;;;3.92;2.10;;;;;;;10.09;62.86;100862.63;5073619;28;20049;-60
2022/04/20 05:21:20;;;;;;;3.88;1.98;;;;;;;10.13;62.64;100872.97;5073970;28;20143;-60
2022/04/20 05:23:50;;;;;;;3.45;2.30;;;;;;;10.20;62.38;100870.34;5090215;28;20055;-60
2022/04/20 05:26:18;;;;;;;4.88;2.05;;;;;;;10.23;61.63;100866.03;5094125;28;20063;-60
2022/04/20 05:28:45;;;;;;;5.55;2.05;;;;;;;10.28;61.73;100866.00;5075095;28;20468;-60
2022/04/20 05:31:13;;;;;;;5.32;2.00;;;;;;;10.30;61.88;100870.31;5072926;28;20052;-60
2022/04/20 05:33:41;;;;;;;4.00;2.03;;;;;;;10.34;61.15;100869.44;5090788;28;20403;-60
2022/04/20 05:36:10;;;;;;;4.68;2.22;;;;;;;10.41;61.20;100870.28;5093956;28;20052;-60
2022/04/20 05:44:12;;;;;;;8.25;2.78;;;;;;;10.50;60.64;100849.50;5082845;28;20047;-58
2022/04/20 05:46:41;;;;;;;7.60;3.00;;;;;;;10.53;60.53;100854.66;5114008;28;20051;-58
2022/04/20 05:49:11;;;;;;;6.13;2.65;;;;;;;10.56;60.18;100856.38;5113983;28;20070;-59
2022/04/20 05:51:40;;;;;;;10.38;2.47;;;;;;;10.56;59.89;100852.06;5114081;28;20043;-58
2022/04/20 05:54:07;;;;;;;11.68;3.40;;;;;;;10.59;60.26;100846.84;5114036;28;20059;-58
2022/04/20 05:56:35;;;;;;;7.10;2.00;;;;;;;10.61;59.62;100846.84;5113602;28;20472;-60
2022/04/20 05:59:04;;;;;;;9.18;2.50;;;;;;;10.59;60.34;100839.06;5113553;28;20636;-60
2022/04/20 06:01:33;;;;;;;8.20;2.50;;;;;;;10.59;60.31;100839.06;5113728;28;20052;-60
2022/04/20 06:04:03;;;;;;;5.75;2.65;;;;;;;10.60;59.97;100835.59;5089696;28;20435;-60
2022/04/20 06:06:33;;;;;;;6.03;2.25;;;;;;;10.61;59.53;100837.31;5072009;28;20128;-60
2022/04/20 06:09:09;;;;;;;4.13;1.88;;;;;;;10.60;59.82;100845.13;5086168;28;20055;-58
2022/04/20 06:11:39;;;;;;;;;;;;;;;10.52;59.80;100827.03;5103645;28;20475;-59
2022/04/20 06:14:07;;;;;;;4.53;2.03;;;;;;;10.55;59.12;100826.16;5093028;28;19924;-59
2022/04/20 06:16:35;;;;;;;3.42;1.73;;;;;;;10.56;59.88;100822.69;5107341;28;20743;-58
2022/04/20 06:19:04;;;;;;;7.53;2.30;;;;;;;10.61;59.26;100816.59;5096307;28;20044;-57
2022/04/20 06:21:34;;;;;;;7.07;2.17;;;;;;;10.67;59.45;100810.50;5107283;28;20048;-58
2022/04/20 06:24:03;;;;;;;5.85;2.08;;;;;;;10.70;59.11;100811.34;5102206;28;20082;-59
2022/04/20 06:26:31;;;;;;;5.65;1.70;;;;;;;10.74;58.85;100807.84;5098746;28;20632;-59
2022/04/20 06:28:59;;;;;;;5.60;1.88;;;;;;;10.81;59.13;100802.59;5109930;28;20047;-59
2022/04/20 06:31:27;;;;;;;5.00;2.83;;;;;;;10.87;58.28;100802.56;5097177;28;20051;-58
2022/04/20 06:33:58;;;;;;;5.55;2.20;;;;;;;10.89;58.21;100786.09;5101200;28;20060;-60
2022/04/20 06:36:26;;;;;;;3.17;1.88;;;;;;;10.93;58.25;100787.81;5094959;28;20465;-60
2022/04/20 06:38:56;;;;;;;3.88;1.98;;;;;;;10.93;57.68;100776.59;5107738;28;20060;-59
2022/04/20 06:41:30;;;;;;;4.95;2.70;;;;;;;10.94;57.81;100773.97;5089761;28;20059;-59
2022/04/20 06:43:58;;;;;;;9.05;2.65;;;;;;;11.01;57.79;100767.00;5107654;28;20048;-57
2022/04/20 06:46:26;;;;;;;4.05;2.30;;;;;;;11.14;57.07;100766.00;5103709;28;20083;-59
2022/04/20 06:48:55;;;;;;;7.47;2.75;;;;;;;11.29;57.18;100765.84;5100305;28;20056;-61
2022/04/20 06:51:23;;;;;;;3.90;1.88;;;;;;;11.49;56.59;100746.59;5112468;28;20059;-58
2022/04/20 06:59:33;;;;;;;3.75;2.17;;;;;;;11.90;55.09;100753.88;5088320;28;20066;-59
2022/04/20 07:02:00;;;;;;;3.45;2.03;;;;;;;12.02;54.64;100764.13;5107120;28;20343;-60
2022/04/20 07:04:28;;;;;;;6.22;1.73;;;;;;;12.14;54.40;100778.69;5110136;28;20059;-59
2022/04/20 07:06:58;;;;;;;2.95;1.60;;;;;;;12.27;53.93;100767.25;5099364;28;20533;-60
2022/04/20 07:09:26;;;;;;;4.05;1.80;;;;;;;12.37;53.38;100770.56;5112059;28;20052;-58
2022/04/20 07:11:55;;;;;;;7.28;1.88;;;;;;;12.47;53.01;100757.38;5099978;28;20052;-60
2022/04/20 07:14:25;;;;;;;10.52;2.15;;;;;;;12.66;52.44;100754.53;5085363;28;20052;-61
2022/04/20 07:16:52;;;;;;;6.13;1.67;;;;;;;12.80;52.27;100755.13;5093233;28;20063;-62
2022/04/20 07:19:22;;;;;;;3.72;1.75;;;;;;;12.93;51.67;100770.50;5112164;28;20135;-61
2022/04/20 07:21:52;;;;;;;2.47;1.40;;;;;;;13.08;51.26;100768.53;5103912;28;20040;-60
2022/04/20 07:24:22;;;;;;;5.47;1.65;;;;;;;13.21;50.95;100776.13;5100897;28;20125;-60
2022/04/20 07:26:50;;;;;;;3.38;1.45;;;;;;;13.39;50.70;100761.91;5099830;28;20052;-60
2022/04/20 07:29:22;;;;;;;6.57;1.73;;;;;;;13.56;49.99;100764.19;5083272;28;20480;-61
2022/04/20 07:31:49;;;;;;;6.50;1.80;;;;;;;13.69;49.61;100752.63;5108178;28;20080;-59
2022/04/20 07:34:17;;;;;;;4.10;1.33;;;;;;;13.83;49.27;100752.34;5107716;28;20647;-60
2022/04/20 07:36:46;;;;;;;3.97;1.73;;;;;;;13.90;48.89;100757.38;5100101;28;20074;-61
2022/04/20 07:39:14;;;;;;;4.97;2.13;;;;;;;14.02;48.52;100765.81;5109026;28;20109;-61
2022/04/20 07:41:44;;;;;;;5.75;2.00;;;;;;;14.15;48.14;100754.25;5101186;28;20055;-59
2022/04/20 07:44:11;;;;;;;4.43;1.98;;;;;;;14.19;47.86;100766.31;5108057;28;20376;-62
2022/04/20 07:46:40;;;;;;;3.70;1.83;;;;;;;14.28;47.74;100762.63;5103410;28;20071;-62
2022/04/20 07:51:49;;;;;;;3.65;1.63;;;;;;;14.37;47.15;100763.28;5105362;28;20059;-60
2022/04/20 07:54:17;;;;;;;4.55;1.70;;;;;;;14.45;46.98;100758.78;5106835;28;20070;-59
2022/04/20 07:56:45;;;;;;;3.22;1.65;;;;;;;14.44;46.55;100761.41;5099785;28;20068;-61
2022/04/20 07:59:13;;;;;;;3.55;1.75;;;;;;;14.42;46.73;100748.41;5112372;28;20086;-59
2022/04/20 08:01:44;;;;;;;6.40;1.85;;;;;;;14.50;46.52;100762.13;5102106;28;20054;-58
2022/04/20 08:04:20;;;;;;;4.82;1.88;;;;;;;14.67;46.40;100755.66;5101559;28;20429;-61
2022/04/20 08:06:48;;;;;;;3.53;2.13;;;;;;;14.80;45.97;100760.53;5094470;28;20052;-61
2022/04/20 08:09:16;;;;;;;5.32;2.17;;;;;;;14.89;45.24;100762.03;5081373;28;20059;-61
2022/04/20 08:11:43;;;;;;;4.95;1.70;;;;;;;14.85;44.97;100755.19;5107193;28;20048;-61
2022/04/20 08:14:14;;;;;;;5.28;2.15;;;;;;;14.90;44.78;100771.59;5097236;28;20044;-61
2022/04/20 08:16:44;;;;;;;4.47;1.70;;;;;;;14.92;44.78;100769.78;5098870;28;20127;-61
2022/04/20 08:19:16;;;;;;;6.35;2.17;;;;;;;14.98;44.93;100764.41;5097958;28;20051;-63
2022/04/20 08:21:43;;;;;;;5.22;1.70;;;;;;;15.05;44.79;100745.09;5102919;28;20051;-62
2022/04/20 08:24:11;;;;;;;6.15;1.83;;;;;;;15.15;44.60;100750.94;5106142;28;20063;-60
2022/04/20 08:26:41;;;;;;;4.07;1.70;;;;;;;15.23;44.71;100753.34;5099677;28;20139;-60
2022/04/20 08:29:10;;;;;;;5.47;1.83;;;;;;;15.41;44.16;100751.06;5100483;28;20078;-61
2022/04/20 08:31:38;;;;;;;3.30;2.28;;;;;;;15.56;43.63;100747.16;5108205;28;20044;-59
2022/04/20 08:34:07;;;;;;;3.80;1.85;;;;;;;15.69;43.46;100748.59;5097042;28;20052;-59
2022/04/20 08:36:35;;;;;;;6.72;1.90;;;;;;;15.77;42.94;100735.28;5107204;28;20052;-59
2022/04/20 08:39:03;;;;;;;7.68;2.05;;;;;;;15.80;42.84;100739.56;5097477;28;20052;-59
2022/04/20 08:41:31;;;;;;;3.30;1.40;;;;;;;15.82;42.79;100743.84;5111328;28;20054;-60
2022/04/20 08:44:03;;;;;;;4.55;2.00;;;;;;;15.84;42.20;100744.66;5104757;28;20483;-60
2022/04/20 08:46:38;;;;;;;4.40;1.80;;;;;;;15.84;42.64;100756.88;5102564;28;20048;-58
2022/04/20 08:49:07;;;;;;;20.52;2.63;;;;;;;15.86;42.69;100744.63;5096076;28;20056;-58
2022/04/20 08:54:18;;;;;;;4.00;2.35;;;;;;;15.98;42.49;100745.09;5079463;28;20060;-57
2022/04/20 08:59:32;;;;;;;4.97;2.00;;;;;;;16.01;42.03;100746.75;5085189;28;20054;-57
2022/04/20 09:02:00;;;;;;;4.18;2.10;;;;;;;15.99;42.21;100764.25;5104510;28;20048;-61
2022/04/20 09:04:29;;;;;;;6.95;2.03;;;;;;;15.94;42.13;100759.16;5107847;28;20367;-60
2022/04/20 09:06:57;;;;;;;5.10;1.73;;;;;;;15.91;42.25;100754.03;5097342;28;20062;-59
2022/04/20 09:09:29;;;;;;;3.20;1.40;;;;;;;15.87;42.14;100751.56;5109136;28;20130;-59
2022/04/20 09:11:59;;;;;;;7.78;2.33;;;;;;;15.93;42.19;100746.13;5102714;28;20059;-59
2022/04/20 09:14:32;;;;;;;5.95;2.10;;;;;;;15.91;42.26;100743.56;5089203;28;20052;-59
2022/04/20 09:17:01;;;;;;;6.15;1.88;;;;;;;15.97;41.96;100735.53;5108591;28;20047;-59
2022/04/20 09:19:30;;;;;;;4.22;1.65;;;;;;;16.04;42.04;100744.03;5098778;28;20059;-60
2022/04/20 09:21:58;;;;;;;4.93;1.90;;;;;;;16.01;41.76;100733.69;5104341;28;20048;-60
2022/04/20 09:24:26;;;;;;;8.82;2.22;;;;;;;16.02;41.96;100724.94;5096378;28;20067;-60
2022/04/20 09:26:58;;;;;;;4.43;2.17;;;;;;;16.10;42.15;100729.03;5097152;28;20121;-61
2022/04/20 09:29:25;;;;;;;5.32;2.25;;;;;;;16.11;41.76;100719.41;5101918;28;20486;-61
2022/04/20 09:31:57;;;;;;;8.15;2.70;;;;;;;16.12;41.54;100731.59;5104658;28;20047;-61
2022/04/20 09:34:53;;;;;;;5.88;2.53;;;;;;;16.12;41.63;100730.75;5093287;28;20468;-62
2022/04/20 09:37:22;;;;;;;6.40;2.17;;;;;;;16.11;41.74;100740.34;5080671;28;20464;-62
2022/04/20 09:39:51;;;;;;;4.93;1.88;;;;;;;16.12;41.58;100747.28;5104245;28;20075;-61
2022/04/20 09:42:20;;;;;;;5.65;2.55;;;;;;;16.12;41.46;100735.97;5104255;28;20047;-62
2022/04/20 09:44:59;;;;;;;2.63;1.50;;;;;;;16.14;41.40;100728.97;5096326;28;20376;-62
2022/04/20 09:50:21;;;;;;;4.00;1.60;;;;;;;16.22;41.63;100733.03;5113429;28;20054;-61
2022/04/20 09:52:54;;;;;;;4.88;2.15;;;;;;;16.15;41.53;100723.69;5097034;28;20135;-61
2022/04/20 09:55:28;;;;;;;7.55;2.30;;;;;;;16.08;41.11;100743.91;5081659;28;20122;-63
2022/04/20 09:58:12;;;;;;;3.57;1.80;;;;;;;16.01;41.29;100746.75;5104271;28;20051;-62
2022/04/20 10:00:41;;;;;;;6.63;2.15;;;;;;;15.90;41.25;100746.22;5105773;28;20663;-60
2022/04/20 10:03:12;;;;;;;4.35;1.88;;;;;;;15.83;41.51;100755.16;5096009;28;20499;-62
2022/04/20 10:05:43;;;;;;;5.07;1.90;;;;;;;15.72;41.84;100732.81;5105155;28;20143;-62
2022/04/20 10:08:14;;;;;;;5.70;1.80;;;;;;;15.63;42.07;100727.88;5103417;28;20047;-62
2022/04/20 10:10:43;;;;;;;7.07;2.15;;;;;;;15.56;42.16;100734.09;5077524;28;20063;-56
2022/04/20 10:13:11;;;;;;;8.90;2.85;;;;;;;15.49;42.44;100745.63;5091596;28;20055;-59
2022/04/20 10:18:27;;;;;;;7.20;2.15;;;;;;;15.11;42.98;100733.66;5097586;28;20597;-60
2022/04/20 10:20:58;;;;;;;6.93;2.10;;;;;;;15.10;42.81;100739.78;5092922;28;20127;-60
2022/04/20 10:23:25;;;;;;;7.50;2.20;;;;;;;15.19;42.75;100741.28;5091979;28;20443;-58
2022/04/20 10:25:53;;;;;;;2.75;1.70;;;;;;;15.18;43.06;100740.41;5084016;28;20075;-58
2022/04/20 10:28:30;;;;;;;4.97;2.42;;;;;;;15.18;42.61;100743.03;5079600;28;20048;-60
2022/04/20 10:31:20;;;;;;;7.63;2.30;;;;;;;15.08;42.37;100739.78;5079296;28;20052;-60
2022/04/20 10:33:47;;;;;;;5.75;2.17;;;;;;;15.03;42.71;100736.44;5084212;28;20509;-63
2022/04/20 10:36:17;;;;;;;6.35;2.03;;;;;;;15.07;42.89;100743.28;5085376;28;20063;-63
2022/04/20 10:38:46;;;;;;;5.32;2.08;;;;;;;15.13;42.83;100748.38;5083081;28;20074;-62
2022/04/20 10:41:13;;;;;;;3.47;1.83;;;;;;;15.13;42.59;100737.94;5098034;28;20171;-61
2022/04/20 10:43:42;;;;;;;4.30;1.80;;;;;;;15.13;42.69;100745.75;5106156;28;20071;-61
2022/04/20 10:46:12;;;;;;;5.10;1.80;;;;;;;15.11;42.15;100744.09;5098344;28;20479;-61
2022/04/20 10:48:46;;;;;;;4.18;1.77;;;;;;;15.07;42.26;100742.44;5108341;28;20139;-61
2022/04/20 10:51:14;;;;;;;5.60;2.70;;;;;;;15.09;42.57;100757.19;5090211;28;20444;-61
2022/04/20 10:53:43;;;;;;;6.70;2.28;;;;;;;15.13;42.52;100751.00;5105109;28;20060;-63
2022/04/20 10:56:10;;;;;;;6.25;2.05;;;;;;;15.24;42.81;100752.44;5103426;28;20124;-62
2022/04/20 10:58:38;;;;;;;4.55;1.55;;;;;;;15.35;42.31;100737.34;5096991;28;20135;-62
2022/04/20 11:01:09;;;;;;;5.82;2.05;;;;;;;15.44;41.74;100742.28;5108567;28;20047;-61
2022/04/20 11:03:54;;;;;;;7.45;2.33;;;;;;;15.53;41.80;100747.25;5090103;28;20496;-62
2022/04/20 11:06:21;;;;;;;13.65;2.47;;;;;;;15.58;41.40;100740.19;5105294;28;20229;-61
2022/04/20 11:08:51;;;;;;;5.15;1.90;;;;;;;15.67;41.50;100739.94;5106290;28;20388;-61
2022/04/20 11:19:53;;;;;;;6.05;2.20;;;;;;;15.46;40.67;100740.50;5101119;28;20062;-60
2022/04/20 11:22:21;;;;;;;5.93;1.90;;;;;;;15.38;40.92;100732.03;5107017;28;20052;-61
2022/04/20 11:25:02;;;;;;;3.88;2.08;;;;;;;15.33;40.84;100739.13;5083889;28;20098;-62
2022/04/20 11:27:34;;;;;;;7.97;1.77;;;;;;;15.33;41.12;100739.13;5079715;28;20047;-61
2022/04/20 11:30:02;;;;;;;5.93;1.90;;;;;;;15.31;41.19;100733.09;5104960;28;20446;-60
2022/04/20 11:32:29;;;;;;;7.15;2.60;;;;;;;15.32;41.38;100738.28;5101678;28;20075;-61
2022/04/20 11:35:06;;;;;;;4.97;1.65;;;;;;;15.33;41.03;100739.13;5109316;28;20054;-61
2022/04/20 11:37:33;;;;;;;3.70;1.80;;;;;;;15.28;41.25;100741.00;5109401;28;20044;-61
2022/04/20 11:40:11;;;;;;;16.60;3.72;;;;;;;15.28;41.08;100730.56;5105666;28;20082;-60
2022/04/20 11:42:37;;;;;;;3.60;1.60;;;;;;;15.26;40.94;100728.00;5099055;28;20067;-58
2022/04/20 11:45:06;;;;;;;5.43;2.03;;;;;;;15.23;40.91;100727.22;5107236;28;20055;-60
2022/04/20 11:47:39;;;;;;;7.72;1.85;;;;;;;15.19;40.64;100725.59;5105521;28;20062;-59
2022/04/20 11:50:09;;;;;;;6.60;1.95;;;;;;;15.15;40.95;100720.47;5106245;28;20112;-61
2022/04/20 11:52:35;;;;;;;3.22;1.63;;;;;;;15.16;41.02;100718.72;5100842;28;20052;-59
2022/04/20 11:55:06;;;;;;;4.20;1.95;;;;;;;15.17;40.84;100723.03;5112167;28;20043;-59
2022/04/20 11:57:33;;;;;;;5.38;2.10;;;;;;;15.20;41.00;100706.44;5101494;28;20047;-62
2022/04/20 12:00:00;;;;;;;5.10;1.80;;;;;;;15.13;40.87;100710.97;5095586;28;20047;-61
2022/04/20 12:02:27;;;;;;;5.15;2.22;;;;;;;15.12;41.26;100704.03;5101015;28;20052;-61
2022/04/20 12:05:05;;;;;;;13.80;2.17;;;;;;;15.17;41.18;100698.69;5102109;28;20063;-56
2022/04/20 12:07:33;;;;;;;6.28;1.73;;;;;;;15.11;41.26;100702.31;5109710;28;20113;-59
2022/04/20 12:10:00;;;;;;;3.25;1.67;;;;;;;15.08;41.43;100698.00;5104752;28;20058;-61
2022/04/20 12:12:28;;;;;;;4.78;2.00;;;;;;;15.06;41.24;100699.81;5101418;28;20048;-61
2022/04/20 12:15:05;;;;;;;5.40;1.92;;;;;;;15.09;41.15;100699.75;5111660;28;20052;-61
2022/04/20 12:17:31;;;;;;;5.60;2.05;;;;;;;15.08;41.48;100702.38;5100675;28;20058;-61